Time;durP1;ratioP1;P1;durP2;ratioP2;P2;SDS_P1;SDS_P2;PMS_P1;PMS_P2;Temp;Humidity;BMP_temperature;BMP_pressure;BME280_temperature;BME280_humidity;BME280_pressure;Samples;Min_cycle;Max_cycle;Signal;HPM_P1;HPM_P2
2022/07/02 00:00:57;;;;;;;10.02;3.65;;;;;;;24.86;49.58;98699.97;4503491;31;20120;-88
2022/07/02 00:03:36;;;;;;;10.70;4.12;;;;;;;25.09;48.62;98705.41;4503574;31;20105;-88
2022/07/02 00:06:03;;;;;;;10.20;3.33;;;;;;;24.79;49.51;98717.91;4489313;31;20052;-88
2022/07/02 00:08:29;;;;;;;;;;;;;;;25.08;48.83;98714.53;4503773;31;20083;-88
2022/07/02 00:10:55;;;;;;;9.30;3.50;;;;;;;24.69;49.93;98727.03;4503517;31;20353;-88
2022/07/02 00:13:23;;;;;;;10.32;3.87;;;;;;;24.84;49.85;98719.06;4503370;31;20084;-88
2022/07/02 00:15:48;;;;;;;9.80;3.75;;;;;;;24.93;49.61;98726.03;4489278;31;20399;-89
2022/07/02 00:18:15;;;;;;;9.60;3.70;;;;;;;24.65;50.47;98731.09;4503624;31;20096;-88
2022/07/02 00:20:42;;;;;;;10.83;3.67;;;;;;;24.53;50.81;98721.69;4503637;31;20122;-88
2022/07/02 00:23:07;;;;;;;10.48;3.70;;;;;;;24.59;50.75;98734.50;4503555;31;20119;-88
2022/07/02 00:25:38;;;;;;;9.45;3.60;;;;;;;24.47;51.25;98731.31;4488899;31;20092;-88
2022/07/02 00:28:10;;;;;;;10.02;3.62;;;;;;;24.51;51.10;98721.03;4503677;31;20074;-87
2022/07/02 00:30:38;;;;;;;11.88;3.70;;;;;;;24.43;51.26;98735.34;4489239;31;20120;-89
2022/07/02 00:33:03;;;;;;;8.73;3.45;;;;;;;24.68;50.41;98717.25;4489290;31;20091;-89
2022/07/02 00:35:29;;;;;;;8.73;3.10;;;;;;;24.46;50.70;98728.78;4503593;31;20110;-90
2022/07/02 00:37:55;;;;;;;8.60;3.67;;;;;;;24.77;49.85;98719.94;4475911;31;20079;-89
2022/07/02 00:40:21;;;;;;;8.50;3.20;;;;;;;24.71;49.85;98729.56;4489234;31;20118;-89
2022/07/02 00:42:47;;;;;;;8.90;3.30;;;;;;;24.82;49.59;98742.63;4489046;31;20144;-90
2022/07/02 00:45:13;;;;;;;8.85;3.17;;;;;;;24.76;49.56;98732.53;4489016;31;20115;-89
2022/07/02 00:47:39;;;;;;;8.10;3.17;;;;;;;24.82;49.22;98722.91;4503449;31;20126;-90
2022/07/02 00:50:06;;;;;;;10.40;3.55;;;;;;;25.03;48.62;98720.44;4503406;31;20160;-91
2022/07/02 00:52:31;;;;;;;7.23;3.07;;;;;;;24.72;49.10;98715.06;4503490;31;20096;-91
2022/07/02 00:54:57;;;;;;;9.05;3.03;;;;;;;24.66;49.18;98713.06;4503220;31;20083;-92
2022/07/02 00:57:22;;;;;;;8.00;2.70;;;;;;;24.53;49.50;98717.19;4503065;31;20172;-88
2022/07/02 00:59:50;;;;;;;6.87;3.10;;;;;;;24.58;49.52;98726.59;4488888;31;20100;-89
2022/07/02 01:02:20;;;;;;;9.70;3.30;;;;;;;24.59;49.44;98718.34;4503121;31;20118;-90
2022/07/02 01:04:48;;;;;;;9.40;3.22;;;;;;;24.49;49.49;98733.81;4503048;31;20139;-89
2022/07/02 01:07:15;;;;;;;8.82;2.87;;;;;;;24.49;49.12;98728.44;4503052;31;20515;-90
2022/07/02 01:12:27;;;;;;;6.82;2.80;;;;;;;24.56;48.93;98699.00;4503073;31;20171;-89
2022/07/02 01:14:54;;;;;;;9.10;3.20;;;;;;;24.51;49.41;98708.44;4503039;31;20766;-89
2022/07/02 01:17:20;;;;;;;8.80;2.97;;;;;;;24.63;49.34;98719.66;4503051;31;20140;-89
2022/07/02 01:19:47;;;;;;;8.85;3.10;;;;;;;24.52;49.85;98734.34;4503052;31;20095;-90
2022/07/02 01:22:13;;;;;;;7.68;3.10;;;;;;;24.44;49.95;98733.50;4488946;31;20108;-90
2022/07/02 01:24:39;;;;;;;7.80;3.03;;;;;;;24.10;50.82;98746.19;4488648;31;20105;-90
2022/07/02 01:27:04;;;;;;;10.60;3.22;;;;;;;24.24;50.70;98755.44;4502807;31;20080;-92
2022/07/02 01:29:30;;;;;;;8.25;3.20;;;;;;;24.37;50.53;98748.69;4502793;31;20148;-89
2022/07/02 01:31:56;;;;;;;8.75;3.17;;;;;;;24.26;50.91;98749.88;4488600;31;20406;-88
2022/07/02 01:34:21;;;;;;;8.27;2.92;;;;;;;24.17;51.23;98751.75;4488201;31;20111;-89
2022/07/02 01:36:47;;;;;;;8.75;3.10;;;;;;;24.05;51.95;98764.75;4502477;31;20092;-89
2022/07/02 01:39:13;;;;;;;7.90;2.83;;;;;;;23.61;53.43;98753.47;4502865;31;20157;-88
2022/07/02 01:41:38;;;;;;;7.53;3.00;;;;;;;23.75;53.07;98768.94;4502790;31;20356;-89
2022/07/02 01:44:04;;;;;;;7.20;2.67;;;;;;;23.57;53.67;98763.72;4502665;31;20420;-88
2022/07/02 01:46:29;;;;;;;11.12;2.85;;;;;;;23.41;54.14;98747.56;4502667;31;20137;-90
2022/07/02 01:48:55;;;;;;;9.57;2.85;;;;;;;23.62;53.48;98728.25;4502849;31;20130;-89
2022/07/02 01:51:20;;;;;;;6.97;2.55;;;;;;;23.58;53.48;98727.75;4502668;31;20080;-91
2022/07/02 01:53:45;;;;;;;9.98;2.70;;;;;;;23.27;54.28;98719.50;4502682;31;20372;-92
2022/07/02 01:56:11;;;;;;;8.13;2.67;;;;;;;22.99;55.11;98717.09;4502629;31;20136;-87
2022/07/02 01:58:36;;;;;;;8.88;3.10;;;;;;;22.94;55.19;98719.41;4502748;31;20106;-89
2022/07/02 02:01:01;;;;;;;7.75;2.22;;;;;;;22.72;55.90;98728.94;4502602;31;20076;-89
2022/07/02 02:03:27;;;;;;;6.93;2.40;;;;;;;22.44;56.63;98725.63;4502491;31;20144;-88
2022/07/02 02:05:53;;;;;;;7.22;2.20;;;;;;;22.24;57.27;98723.16;4502486;31;20159;-87
2022/07/02 02:08:18;;;;;;;7.32;2.28;;;;;;;22.13;57.72;98710.00;4502403;31;20467;-90
2022/07/02 02:10:43;;;;;;;6.10;2.20;;;;;;;22.28;57.03;98708.44;4502503;31;20092;-90
2022/07/02 02:13:09;;;;;;;5.93;2.45;;;;;;;22.13;57.24;98702.81;4502497;31;20084;-92
2022/07/02 02:15:34;;;;;;;5.90;2.12;;;;;;;21.90;57.89;98704.34;4502342;31;20084;-93
2022/07/02 02:18:00;;;;;;;7.65;2.03;;;;;;;21.74;58.30;98683.63;4488127;31;20493;-91
2022/07/02 02:20:25;;;;;;;8.30;1.92;;;;;;;21.56;58.61;98679.16;4502346;31;20092;-90
2022/07/02 02:22:50;;;;;;;4.85;1.83;;;;;;;21.71;58.29;98654.44;4502360;31;20124;-90
2022/07/02 02:25:16;;;;;;;7.37;2.00;;;;;;;21.78;57.87;98634.06;4501999;31;20111;-90
2022/07/02 02:27:41;;;;;;;5.80;1.70;;;;;;;21.84;57.67;98654.03;4502298;31;20127;-91
2022/07/02 02:30:07;;;;;;;6.82;1.80;;;;;;;21.67;58.03;98661.13;4502308;31;20089;-89
2022/07/02 02:32:33;;;;;;;4.10;1.70;;;;;;;21.70;57.65;98656.31;4502613;31;20088;-89
2022/07/02 02:34:58;;;;;;;6.57;1.77;;;;;;;21.84;57.22;98691.59;4502323;31;20072;-88
2022/07/02 02:37:24;;;;;;;4.85;1.90;;;;;;;21.80;57.22;98701.78;4502514;31;20092;-91
2022/07/02 02:39:49;;;;;;;5.82;1.70;;;;;;;21.76;57.31;98711.97;4502404;31;20088;-91
2022/07/02 02:42:15;;;;;;;3.62;1.50;;;;;;;21.79;56.88;98714.34;4502104;31;20104;-91
2022/07/02 02:44:40;;;;;;;5.15;1.70;;;;;;;21.64;57.19;98720.44;4502032;31;20111;-90
2022/07/02 02:47:06;;;;;;;6.15;1.58;;;;;;;21.69;57.19;98716.28;4502142;31;20148;-90
2022/07/02 02:49:31;;;;;;;6.80;1.50;;;;;;;21.77;56.81;98719.03;4504092;31;20115;-90
2022/07/02 02:51:56;;;;;;;4.90;2.00;;;;;;;22.07;55.81;98724.91;4504100;31;20088;-91
2022/07/02 02:54:22;;;;;;;5.12;1.60;;;;;;;21.94;56.00;98749.50;4503892;31;20116;-90
2022/07/02 02:56:47;;;;;;;5.62;1.70;;;;;;;21.55;56.78;98746.31;4504100;31;20431;-92
2022/07/02 02:59:13;;;;;;;6.78;1.80;;;;;;;21.59;56.87;98753.94;4504028;31;20115;-92
2022/07/02 03:01:38;;;;;;;4.78;1.90;;;;;;;21.74;56.44;98750.66;4489604;31;20454;-91
2022/07/02 03:04:04;;;;;;;6.90;2.12;;;;;;;21.44;57.32;98758.16;4503952;31;20084;-92
2022/07/02 03:06:29;;;;;;;6.45;2.12;;;;;;;21.53;57.11;98751.84;4503728;31;20083;-91
2022/07/02 03:08:55;;;;;;;6.25;2.08;;;;;;;21.43;57.43;98769.81;4489556;31;20119;-91
2022/07/02 03:11:20;;;;;;;5.87;2.10;;;;;;;21.26;57.94;98794.78;4489642;31;20408;-91
2022/07/02 03:13:45;;;;;;;4.40;1.83;;;;;;;20.95;58.95;98795.94;4498311;31;20122;-89
2022/07/02 03:16:11;;;;;;;4.55;1.90;;;;;;;21.18;58.39;98795.53;4502380;31;20117;-89
2022/07/02 03:18:36;;;;;;;5.15;1.95;;;;;;;21.08;58.60;98792.91;4487999;31;20115;-89
2022/07/02 03:21:02;;;;;;;4.00;1.75;;;;;;;21.19;58.29;98794.53;4488083;31;20092;-90
2022/07/02 03:23:27;;;;;;;6.65;2.10;;;;;;;21.40;57.78;98791.53;4488110;32;20096;-90
2022/07/02 03:25:53;;;;;;;7.55;2.33;;;;;;;21.38;57.82;98805.13;4486486;32;20483;-89
2022/07/02 03:28:18;;;;;;;13.00;3.28;;;;;;;21.28;58.19;98808.84;4488073;31;20093;-88
2022/07/02 03:30:43;;;;;;;6.62;2.28;;;;;;;20.95;59.36;98816.53;4487979;31;20121;-87
2022/07/02 03:33:09;;;;;;;7.93;2.55;;;;;;;20.88;59.68;98821.66;4487792;32;20099;-90
2022/07/02 03:35:34;;;;;;;6.18;2.33;;;;;;;21.10;59.13;98824.91;4487944;32;20099;-89
2022/07/02 03:38:01;;;;;;;7.75;2.65;;;;;;;21.08;59.17;98816.19;4488058;31;20100;-91
2022/07/02 03:40:27;;;;;;;6.70;2.30;;;;;;;21.26;58.85;98817.03;4486698;32;20093;-87
2022/07/02 03:42:53;;;;;;;7.40;2.50;;;;;;;20.83;60.19;98823.09;4487796;31;20375;-84
2022/07/02 03:45:18;;;;;;;9.38;2.90;;;;;;;21.16;59.37;98826.97;4489508;31;20107;-83
2022/07/02 03:47:43;;;;;;;7.43;2.70;;;;;;;20.59;61.44;98827.97;4500419;31;20155;-85
2022/07/02 03:50:09;;;;;;;7.47;2.37;;;;;;;20.40;62.31;98838.72;4489132;31;20080;-86
2022/07/02 03:52:36;;;;;;;7.10;2.65;;;;;;;20.33;62.74;98841.09;4503588;31;20096;-86
2022/07/02 03:55:02;;;;;;;7.45;2.78;;;;;;;20.66;61.59;98846.94;4503638;31;20096;-86
2022/07/02 03:57:28;;;;;;;9.55;2.62;;;;;;;20.41;62.16;98851.06;4503428;31;20118;-87
2022/07/02 03:59:53;;;;;;;9.20;2.70;;;;;;;20.39;62.49;98847.72;4503378;31;20084;-86
2022/07/02 04:02:19;;;;;;;8.13;3.05;;;;;;;20.11;63.70;98858.34;4489038;31;20084;-84
2022/07/02 04:04:44;;;;;;;6.03;2.35;;;;;;;20.53;62.25;98854.44;4503502;31;20096;-84
2022/07/02 04:07:09;;;;;;;7.65;2.70;;;;;;;20.67;61.70;98871.88;4503410;31;20486;-82
2022/07/02 04:09:35;;;;;;;7.22;2.75;;;;;;;20.73;61.56;98864.13;4503396;31;20155;-84
2022/07/02 04:12:00;;;;;;;6.25;2.45;;;;;;;20.96;60.69;98866.44;4481905;32;20367;-81
2022/07/02 04:14:25;;;;;;;9.45;2.92;;;;;;;21.13;60.12;98865.63;4487704;32;20486;-81
2022/07/02 04:16:51;;;;;;;7.18;2.70;;;;;;;21.01;60.41;98874.84;4487577;32;20143;-81
2022/07/02 04:19:17;;;;;;;6.50;2.50;;;;;;;21.27;59.82;98861.59;4487650;32;20460;-82
2022/07/02 04:21:42;;;;;;;13.40;2.50;;;;;;;21.44;58.92;98876.06;4487857;32;20085;-83
2022/07/02 04:24:08;;;;;;;6.93;2.47;;;;;;;21.74;58.12;98874.00;4487828;32;20093;-83
2022/07/02 04:26:33;;;;;;;7.70;2.80;;;;;;;21.67;58.28;98873.78;4486350;32;20151;-83
2022/07/02 04:28:59;;;;;;;7.43;2.67;;;;;;;21.76;57.89;98880.91;4487688;32;20084;-82
2022/07/02 04:31:24;;;;;;;7.53;2.65;;;;;;;21.58;58.42;98875.53;4487700;32;20084;-80
2022/07/02 04:33:50;;;;;;;7.03;2.62;;;;;;;21.67;58.17;98867.56;4487768;32;20097;-82
2022/07/02 04:36:15;;;;;;;7.95;2.85;;;;;;;21.70;58.00;98869.97;4487593;32;20330;-82
2022/07/02 04:38:40;;;;;;;7.18;3.05;;;;;;;21.66;58.08;98879.31;4487722;32;20079;-82
2022/07/02 04:41:06;;;;;;;7.00;2.62;;;;;;;21.93;57.26;98886.44;4487612;32;20084;-83
2022/07/02 04:43:31;;;;;;;8.05;2.50;;;;;;;22.14;56.71;98873.53;4487651;32;20100;-83
2022/07/02 04:45:57;;;;;;;7.93;2.60;;;;;;;21.93;57.15;98887.25;4473248;32;20096;-81
2022/07/02 04:48:22;;;;;;;9.07;3.17;;;;;;;22.14;56.51;98894.16;4487395;32;20127;-81
2022/07/02 04:50:48;;;;;;;7.65;2.75;;;;;;;21.88;57.20;98896.78;4473112;32;20084;-81
2022/07/02 04:53:13;;;;;;;7.30;2.87;;;;;;;22.16;56.61;98903.72;4487350;32;20165;-82
2022/07/02 04:55:38;;;;;;;7.60;2.65;;;;;;;22.38;55.67;98923.88;4472907;32;20089;-82
2022/07/02 04:58:04;;;;;;;7.57;2.47;;;;;;;22.19;56.22;98907.94;4487445;32;20119;-82
2022/07/02 05:00:29;;;;;;;7.07;2.78;;;;;;;22.57;55.44;98922.84;4487269;32;20099;-83
2022/07/02 05:02:55;;;;;;;8.07;2.70;;;;;;;22.65;54.89;98919.37;4487255;32;20131;-83
2022/07/02 05:05:21;;;;;;;7.00;2.62;;;;;;;22.72;54.61;98930.34;4487301;32;20080;-83
2022/07/02 05:07:46;;;;;;;14.40;3.20;;;;;;;22.51;55.10;98923.50;4487215;32;20092;-82
2022/07/02 05:10:12;;;;;;;8.18;3.20;;;;;;;22.59;54.91;98928.06;4486244;32;20452;-83
2022/07/02 05:12:37;;;;;;;6.20;2.55;;;;;;;22.60;54.94;98932.47;4487175;32;20119;-82
2022/07/02 05:15:03;;;;;;;6.93;2.50;;;;;;;22.52;55.15;98930.56;4487357;32;20133;-84
2022/07/02 05:17:29;;;;;;;8.30;2.85;;;;;;;22.65;55.12;98956.16;4487314;32;20110;-84
2022/07/02 05:19:54;;;;;;;8.73;3.12;;;;;;;22.76;54.76;98948.66;4487085;32;20111;-83
2022/07/02 05:22:20;;;;;;;8.00;2.90;;;;;;;22.82;54.49;98951.72;4472968;32;20364;-83
2022/07/02 05:24:45;;;;;;;7.47;2.80;;;;;;;22.71;54.55;98968.94;4487169;32;20387;-84
2022/07/02 05:27:10;;;;;;;9.38;2.83;;;;;;;22.94;54.17;98961.19;4486797;32;20444;-83
2022/07/02 05:29:36;;;;;;;6.72;2.90;;;;;;;23.02;53.74;98968.47;4487120;32;20096;-84
2022/07/02 05:32:01;;;;;;;10.60;2.78;;;;;;;23.21;53.46;98970.13;4472627;32;20108;-83
2022/07/02 05:34:27;;;;;;;8.77;2.90;;;;;;;23.37;52.76;98978.25;4487146;32;20111;-83
2022/07/02 05:36:52;;;;;;;7.47;2.75;;;;;;;23.53;52.43;98964.87;4472715;32;20115;-82
2022/07/02 05:39:18;;;;;;;8.45;3.10;;;;;;;23.60;52.10;98969.59;4486999;32;20370;-82
2022/07/02 05:41:43;;;;;;;8.57;2.95;;;;;;;23.47;52.29;98976.31;4487084;32;20364;-82
2022/07/02 05:44:08;;;;;;;7.97;3.08;;;;;;;23.68;51.83;98992.00;4487094;32;20085;-81
2022/07/02 05:46:34;;;;;;;8.95;3.10;;;;;;;23.47;52.28;98996.94;4486814;32;20137;-82
2022/07/02 05:48:59;;;;;;;12.77;3.87;;;;;;;23.72;51.37;99000.56;4487044;32;20144;-82
2022/07/02 05:51:25;;;;;;;10.23;2.92;;;;;;;23.68;51.59;99009.97;4486780;32;20173;-82
2022/07/02 05:53:50;;;;;;;10.73;3.12;;;;;;;24.11;50.76;99011.66;4486954;32;20088;-82
2022/07/02 05:56:15;;;;;;;8.68;3.30;;;;;;;24.19;50.50;99012.69;4486857;32;20451;-82
2022/07/02 05:58:41;;;;;;;12.93;3.40;;;;;;;24.19;50.18;99018.91;4472641;32;20456;-83
2022/07/02 06:01:07;;;;;;;9.35;3.25;;;;;;;24.25;50.26;99020.94;4486820;32;20140;-82
2022/07/02 06:03:32;;;;;;;9.02;3.28;;;;;;;24.03;50.60;99022.41;4486807;32;20092;-82
2022/07/02 06:08:41;;;;;;;8.00;2.95;;;;;;;24.14;50.13;99026.63;4486837;32;20198;-83
2022/07/02 06:11:07;;;;;;;8.52;3.15;;;;;;;24.26;49.93;99035.22;4486681;32;20100;-81
2022/07/02 06:13:33;;;;;;;7.20;2.80;;;;;;;24.39;49.60;99034.75;4486788;32;20123;-81
2022/07/02 06:15:58;;;;;;;8.02;3.00;;;;;;;24.94;48.53;99036.81;4486561;32;20141;-81
2022/07/02 06:18:24;;;;;;;9.27;2.97;;;;;;;25.20;47.84;99024.97;4486600;32;20140;-81
2022/07/02 06:20:50;;;;;;;8.73;3.03;;;;;;;25.17;47.85;99036.97;4486356;32;20116;-84
2022/07/02 06:23:16;;;;;;;8.63;2.70;;;;;;;25.28;47.37;99028.56;4488586;31;20100;-90
2022/07/02 06:25:41;;;;;;;9.45;2.65;;;;;;;25.22;47.58;99017.56;4495639;31;20150;-89
2022/07/02 06:28:07;;;;;;;6.82;2.92;;;;;;;25.60;46.74;99021.34;4496912;31;20100;-88
2022/07/02 06:30:32;;;;;;;7.43;2.92;;;;;;;25.72;46.11;99020.97;4488818;31;20428;-88
2022/07/02 06:32:58;;;;;;;8.43;2.70;;;;;;;25.51;46.51;99022.41;4497619;31;20092;-87
2022/07/02 06:35:23;;;;;;;8.35;3.05;;;;;;;25.45;46.58;99025.78;4492033;31;20151;-88
2022/07/02 06:37:49;;;;;;;6.80;2.83;;;;;;;25.08;47.33;99032.59;4481400;31;20080;-82
2022/07/02 06:40:14;;;;;;;6.43;2.47;;;;;;;25.39;47.10;99030.03;4495434;31;20123;-82
2022/07/02 06:42:40;;;;;;;9.00;2.97;;;;;;;25.80;46.08;99023.63;4488474;31;20084;-81
2022/07/02 06:45:06;;;;;;;8.00;3.10;;;;;;;25.97;45.59;99021.72;4496463;31;20106;-81
2022/07/02 06:47:32;;;;;;;7.97;2.65;;;;;;;25.93;46.05;99023.94;4493297;31;20077;-82
2022/07/02 06:49:58;;;;;;;8.73;2.83;;;;;;;26.03;45.54;99034.50;4490827;31;20187;-82
2022/07/02 06:52:25;;;;;;;13.15;3.17;;;;;;;26.26;45.03;99026.44;4484376;31;20803;-82
2022/07/02 06:54:50;;;;;;;7.33;3.10;;;;;;;25.96;45.32;99031.69;4488931;31;20099;-83
2022/07/02 06:57:16;;;;;;;7.40;2.90;;;;;;;25.91;45.64;99034.06;4480920;32;20412;-87
2022/07/02 06:59:41;;;;;;;11.35;2.95;;;;;;;25.88;45.58;99029.84;4494086;31;20155;-88
2022/07/02 07:02:07;;;;;;;6.45;2.95;;;;;;;25.99;45.26;99041.28;4489560;31;20433;-86
2022/07/02 07:04:34;;;;;;;9.75;3.08;;;;;;;26.01;45.10;99025.75;4498439;31;20084;-87
2022/07/02 07:07:00;;;;;;;11.73;3.20;;;;;;;25.99;45.38;99039.41;4490043;31;20125;-87
2022/07/02 07:09:29;;;;;;;7.75;3.00;;;;;;;25.95;45.16;99048.87;4479750;32;20206;-86
2022/07/02 07:11:55;;;;;;;8.93;3.35;;;;;;;26.33;44.48;99046.31;4495885;31;20096;-86
2022/07/02 07:14:22;;;;;;;13.98;3.22;;;;;;;26.31;44.56;99045.66;4473915;31;20451;-86
2022/07/02 07:16:47;;;;;;;8.18;2.80;;;;;;;26.47;43.88;99050.09;4483445;31;20420;-86
2022/07/02 07:19:13;;;;;;;7.35;2.92;;;;;;;26.36;43.75;99051.34;4497504;31;20120;-86
2022/07/02 07:21:40;;;;;;;11.23;3.58;;;;;;;26.44;43.98;99045.91;4492439;31;20152;-87
2022/07/02 07:24:06;;;;;;;9.05;3.05;;;;;;;26.43;44.15;99055.03;4486670;31;20097;-82
2022/07/02 07:26:32;;;;;;;9.43;3.15;;;;;;;26.09;44.76;99052.69;4493165;31;21178;-82
2022/07/02 07:28:58;;;;;;;9.10;2.90;;;;;;;26.50;43.75;99060.53;4478342;31;20145;-82
2022/07/02 07:31:23;;;;;;;7.70;2.62;;;;;;;26.48;43.27;99062.56;4488169;31;20139;-82
2022/07/02 07:33:50;;;;;;;8.15;2.80;;;;;;;26.49;44.03;99065.09;4491006;31;20443;-81
2022/07/02 07:36:17;;;;;;;11.32;3.40;;;;;;;26.64;43.49;99075.19;4480648;31;20085;-82
2022/07/02 07:38:43;;;;;;;8.27;3.00;;;;;;;26.96;42.99;99068.66;4478277;31;20116;-82
2022/07/02 07:41:08;;;;;;;7.53;2.90;;;;;;;26.65;42.95;99074.97;4492774;31;20375;-83
2022/07/02 07:43:34;;;;;;;7.82;3.03;;;;;;;26.77;43.04;99075.44;4494816;31;20088;-82
2022/07/02 07:45:59;;;;;;;7.45;2.80;;;;;;;26.91;42.81;99065.69;4498153;31;20099;-82
2022/07/02 07:48:25;;;;;;;7.70;3.08;;;;;;;27.20;42.30;99067.59;4489944;31;20130;-82
2022/07/02 07:50:50;;;;;;;7.35;2.90;;;;;;;27.16;41.95;99071.72;4485169;32;20415;-83
2022/07/02 07:53:16;;;;;;;10.52;3.28;;;;;;;27.32;41.60;99073.44;4479177;31;20337;-83
2022/07/02 07:55:41;;;;;;;10.18;2.87;;;;;;;27.43;41.82;99080.25;4479828;32;20133;-82
2022/07/02 07:58:07;;;;;;;8.95;3.00;;;;;;;27.53;40.96;99080.81;4484921;31;20104;-83
2022/07/02 08:00:32;;;;;;;12.48;3.10;;;;;;;27.69;41.19;99081.66;4490142;31;20096;-83
2022/07/02 08:02:58;;;;;;;7.15;3.10;;;;;;;27.73;41.04;99074.84;4484659;32;20092;-83
2022/07/02 08:05:24;;;;;;;8.02;2.72;;;;;;;27.80;40.52;99082.03;4494271;31;20084;-83
2022/07/02 08:07:49;;;;;;;9.75;2.72;;;;;;;27.89;40.14;99084.66;4479053;32;20188;-83
2022/07/02 08:10:15;;;;;;;8.68;3.05;;;;;;;28.12;39.93;99074.53;4499996;31;20111;-83
2022/07/02 08:12:41;;;;;;;8.65;3.15;;;;;;;28.26;39.81;99088.25;4490017;31;20106;-83
2022/07/02 08:15:08;;;;;;;13.98;3.37;;;;;;;28.22;39.90;99080.50;4497851;31;20064;-85
2022/07/02 08:17:34;;;;;;;8.05;3.00;;;;;;;28.23;40.06;99081.34;4476205;32;20146;-81
2022/07/02 08:20:00;;;;;;;8.43;2.90;;;;;;;28.13;40.07;99081.66;4483903;31;20100;-82
2022/07/02 08:22:25;;;;;;;8.75;3.17;;;;;;;28.46;39.55;99074.94;4475628;31;21016;-81
2022/07/02 08:24:51;;;;;;;7.97;3.10;;;;;;;28.35;39.49;99070.84;4499660;31;20332;-81
2022/07/02 08:27:16;;;;;;;14.50;3.22;;;;;;;28.39;39.17;99064.00;4493449;31;20097;-86
2022/07/02 08:29:42;;;;;;;8.85;3.00;;;;;;;28.51;39.25;99073.34;4479801;32;20393;-79
2022/07/02 08:32:08;;;;;;;6.95;2.70;;;;;;;28.36;39.69;99077.97;4484701;31;20130;-79
2022/07/02 08:34:34;;;;;;;7.40;2.83;;;;;;;28.22;39.64;99080.50;4489597;31;20460;-79
2022/07/02 08:36:59;;;;;;;9.75;2.83;;;;;;;28.24;39.79;99067.62;4498496;31;20352;-82
2022/07/02 08:39:25;;;;;;;8.40;3.20;;;;;;;28.19;39.16;99077.34;4488971;31;20100;-81
2022/07/02 08:41:52;;;;;;;11.23;2.85;;;;;;;27.93;39.65;99077.84;4472204;32;20139;-81
2022/07/02 08:44:20;;;;;;;8.73;3.20;;;;;;;28.24;39.11;99078.44;4489068;31;20110;-81
2022/07/02 08:46:46;;;;;;;7.15;2.85;;;;;;;28.48;38.92;99072.88;4493305;31;20100;-79
2022/07/02 08:49:15;;;;;;;8.13;3.17;;;;;;;28.43;38.99;99063.44;4482371;31;20169;-81
2022/07/02 08:51:42;;;;;;;9.65;3.90;;;;;;;28.42;38.95;99080.72;4481405;31;20497;-80
2022/07/02 08:54:08;;;;;;;10.30;3.47;;;;;;;28.17;39.38;99085.66;4490921;31;20161;-79
2022/07/02 08:56:33;;;;;;;7.60;3.00;;;;;;;28.28;39.18;99072.63;4485455;31;20115;-80
2022/07/02 08:59:00;;;;;;;6.90;2.97;;;;;;;28.08;39.32;99085.94;4491133;31;20112;-80
2022/07/02 09:01:26;;;;;;;10.10;3.03;;;;;;;28.22;39.13;99079.66;4481066;32;20132;-81
2022/07/02 09:03:52;;;;;;;12.18;3.60;;;;;;;28.28;39.32;99075.34;4482720;31;20092;-81
2022/07/02 09:06:21;;;;;;;10.60;3.70;;;;;;;28.34;38.93;99082.72;4489835;31;20129;-81
2022/07/02 09:08:47;;;;;;;9.43;3.35;;;;;;;28.57;38.35;99074.47;4486972;32;20196;-80
2022/07/02 09:11:13;;;;;;;8.85;3.47;;;;;;;28.46;38.57;99083.06;4482555;32;20118;-81
2022/07/02 09:13:39;;;;;;;8.70;3.28;;;;;;;28.61;38.21;99067.62;4495211;31;20080;-80
2022/07/02 09:16:06;;;;;;;8.00;3.05;;;;;;;28.41;38.31;99068.22;4478756;31;20184;-81
2022/07/02 09:18:31;;;;;;;7.90;3.50;;;;;;;28.49;38.42;99082.66;4489592;31;20632;-81
2022/07/02 09:20:57;;;;;;;9.00;3.67;;;;;;;28.39;38.75;99072.97;4498581;31;20168;-81
2022/07/02 09:23:22;;;;;;;7.75;3.30;;;;;;;28.63;38.34;99073.69;4465996;31;20436;-81
2022/07/02 09:25:49;;;;;;;11.95;3.45;;;;;;;28.58;38.27;99066.13;4492495;31;20110;-81
2022/07/02 09:28:16;;;;;;;10.05;3.40;;;;;;;28.52;38.48;99064.19;4485052;31;20455;-81
2022/07/02 09:30:42;;;;;;;8.25;3.45;;;;;;;28.65;38.57;99058.06;4489446;31;20088;-82
2022/07/02 09:33:30;;;;;;;8.63;3.67;;;;;;;28.68;38.35;99070.38;4483089;32;20071;-82
2022/07/02 09:35:57;;;;;;;9.43;3.83;;;;;;;28.95;37.90;99071.47;4483950;31;20118;-82
2022/07/02 09:38:22;;;;;;;10.05;3.83;;;;;;;29.09;37.62;99057.00;4475216;31;20097;-82
2022/07/02 09:40:52;;;;;;;9.50;3.25;;;;;;;28.73;38.11;99062.50;4499411;31;20118;-82
2022/07/02 09:43:30;;;;;;;8.93;3.20;;;;;;;29.05;37.33;99054.84;4493225;31;20088;-81
2022/07/02 09:45:56;;;;;;;11.68;3.92;;;;;;;29.10;37.26;99060.53;4477508;32;20436;-81
2022/07/02 09:48:22;;;;;;;8.55;3.53;;;;;;;29.04;37.37;99061.31;4485452;31;20429;-81
2022/07/02 09:50:47;;;;;;;8.90;3.87;;;;;;;29.21;37.22;99062.75;4475322;31;20112;-82
2022/07/02 09:53:12;;;;;;;10.68;3.40;;;;;;;28.80;38.02;99064.25;4496673;31;20095;-82
2022/07/02 09:55:38;;;;;;;9.10;3.53;;;;;;;28.94;37.44;99067.91;4494377;31;20112;-81
2022/07/02 09:58:04;;;;;;;10.13;3.78;;;;;;;28.71;37.93;99073.56;4476357;32;20100;-84
2022/07/02 10:00:34;;;;;;;9.18;3.92;;;;;;;29.14;36.85;99059.97;4499303;31;20087;-85
2022/07/02 10:03:01;;;;;;;9.27;3.58;;;;;;;28.86;37.66;99070.78;4463175;31;20114;-85
2022/07/02 10:05:32;;;;;;;8.77;3.80;;;;;;;29.09;37.42;99067.84;4494547;31;20444;-86
2022/07/02 10:07:58;;;;;;;7.62;3.22;;;;;;;29.25;37.19;99066.72;4482774;31;20119;-85
2022/07/02 10:10:34;;;;;;;8.48;3.50;;;;;;;28.94;37.88;99072.50;4474633;31;20112;-83
2022/07/02 10:13:00;;;;;;;10.65;3.72;;;;;;;29.12;37.37;99066.59;4483618;32;20080;-85
2022/07/02 10:15:29;;;;;;;10.73;4.37;;;;;;;28.99;37.86;99072.75;4493272;31;20103;-82
2022/07/02 10:17:56;;;;;;;9.32;3.75;;;;;;;29.12;37.50;99074.72;4498314;31;20100;-82
2022/07/02 10:20:25;;;;;;;10.82;3.90;;;;;;;28.84;38.02;99070.13;4474512;31;20084;-82
2022/07/02 10:22:51;;;;;;;10.77;3.92;;;;;;;29.01;38.14;99059.81;4484103;32;20064;-82
2022/07/02 10:25:18;;;;;;;10.68;4.53;;;;;;;29.21;37.20;99073.59;4492271;31;20127;-81
2022/07/02 10:27:45;;;;;;;9.05;3.92;;;;;;;29.25;36.85;99069.44;4478099;32;20130;-82
2022/07/02 10:30:12;;;;;;;8.95;3.78;;;;;;;29.24;37.32;99064.22;4498171;31;20573;-81
2022/07/02 10:32:43;;;;;;;10.57;3.70;;;;;;;29.28;36.97;99060.88;4474136;31;20110;-83
2022/07/02 10:35:11;;;;;;;9.57;4.05;;;;;;;29.25;37.26;99066.72;4496428;31;20115;-82
2022/07/02 10:37:41;;;;;;;8.57;3.55;;;;;;;29.08;37.83;99060.72;4494244;31;20138;-81
2022/07/02 10:40:07;;;;;;;9.55;3.53;;;;;;;29.15;37.77;99067.06;4475704;32;20533;-82
2022/07/02 10:42:41;;;;;;;9.55;4.00;;;;;;;29.33;37.51;99060.31;4484393;31;20477;-82
2022/07/02 10:45:12;;;;;;;10.13;3.50;;;;;;;29.36;36.84;99062.63;4490974;31;20176;-83
2022/07/02 10:47:51;;;;;;;12.88;4.10;;;;;;;29.62;36.95;99061.13;4492947;31;20127;-82
2022/07/02 10:50:17;;;;;;;9.60;3.53;;;;;;;29.91;36.08;99054.59;4484183;31;20114;-83
2022/07/02 10:52:50;;;;;;;9.65;3.30;;;;;;;29.90;35.67;99051.06;4488316;31;20091;-83
2022/07/02 10:55:29;;;;;;;7.25;3.28;;;;;;;30.12;35.59;99046.31;4481039;32;20139;-81
2022/07/02 10:57:59;;;;;;;9.27;3.58;;;;;;;30.25;35.03;99058.25;4481948;31;20361;-82
2022/07/02 11:00:30;;;;;;;7.90;3.20;;;;;;;29.94;35.62;99048.75;4474146;31;20096;-81
2022/07/02 11:02:57;;;;;;;9.75;3.67;;;;;;;29.85;35.82;99056.25;4497571;31;20080;-81
2022/07/02 11:05:23;;;;;;;7.35;3.30;;;;;;;29.77;35.54;99048.28;4478059;31;20479;-80
2022/07/02 11:07:48;;;;;;;8.43;3.20;;;;;;;29.76;35.01;99046.59;4491780;31;20096;-83
2022/07/02 11:10:14;;;;;;;9.98;3.37;;;;;;;29.35;35.27;99047.38;4500017;31;20118;-81
2022/07/02 11:12:46;;;;;;;10.15;3.37;;;;;;;29.62;35.07;99042.94;4476060;31;20123;-81
2022/07/02 11:15:21;;;;;;;8.55;3.35;;;;;;;29.85;35.09;99050.00;4498059;31;20147;-81
2022/07/02 11:17:52;;;;;;;7.70;3.22;;;;;;;29.58;35.32;99038.97;4476570;32;20117;-82
2022/07/02 11:20:25;;;;;;;10.05;3.45;;;;;;;29.63;35.12;99044.59;4486401;31;20114;-83
2022/07/02 11:22:51;;;;;;;10.57;3.30;;;;;;;29.69;35.57;99051.13;4487653;32;20105;-83
2022/07/02 11:25:16;;;;;;;7.72;3.10;;;;;;;29.68;35.03;99054.88;4482679;32;20108;-82
2022/07/02 11:27:42;;;;;;;18.42;3.92;;;;;;;29.66;35.01;99037.97;4496078;31;20112;-82
2022/07/02 11:30:08;;;;;;;10.27;3.28;;;;;;;29.71;35.44;99035.44;4491417;31;20114;-82
2022/07/02 11:32:36;;;;;;;8.10;3.12;;;;;;;29.89;34.96;99035.78;4500390;31;20509;-82